createdAt,value
2019-05-19T00:01:05.104Z,15.98
2019-05-19T00:03:40.194Z,15.99
2019-05-19T00:06:15.298Z,15.92
2019-05-19T00:08:50.352Z,15.89
2019-05-19T00:11:25.460Z,15.92
2019-05-19T00:14:01.995Z,15.88
2019-05-19T00:16:37.143Z,15.83
2019-05-19T00:19:25.866Z,15.85
2019-05-19T00:21:49.258Z,15.83
2019-05-19T00:24:24.294Z,15.92
2019-05-19T00:26:59.400Z,15.87
2019-05-19T00:29:34.489Z,15.75
2019-05-19T00:32:10.730Z,15.74
2019-05-19T00:34:45.857Z,15.72
2019-05-19T00:37:20.938Z,15.72
2019-05-19T00:39:55.945Z,15.77
2019-05-19T00:42:31.071Z,15.76
2019-05-19T00:45:07.274Z,15.67
2019-05-19T00:47:42.451Z,15.66
2019-05-19T00:50:17.774Z,15.59
2019-05-19T00:52:52.772Z,15.57
2019-05-19T00:55:28.179Z,15.65
2019-05-19T00:58:05.768Z,15.56
2019-05-19T01:00:40.990Z,15.51
2019-05-19T01:03:16.060Z,15.46
2019-05-19T01:05:51.062Z,15.42
2019-05-19T01:08:26.153Z,15.42
2019-05-19T01:11:01.176Z,15.43
2019-05-19T01:13:36.254Z,15.38
2019-05-19T01:16:11.261Z,15.32
2019-05-19T01:18:46.400Z,15.35
2019-05-19T01:21:22.118Z,15.27
2019-05-19T01:23:57.220Z,15.24
2019-05-19T01:26:32.316Z,15.19
2019-05-19T01:29:07.304Z,15.21
2019-05-19T01:31:42.419Z,15.23
2019-05-19T01:34:17.374Z,15.23
2019-05-19T01:36:52.440Z,15.20
2019-05-19T01:39:27.460Z,15.22
2019-05-19T01:42:02.669Z,15.14
2019-05-19T01:44:37.846Z,15.25
2019-05-19T01:47:13.024Z,15.30
2019-05-19T01:49:47.992Z,15.38
2019-05-19T01:52:23.164Z,15.38
2019-05-19T01:54:58.177Z,15.18
2019-05-19T01:57:33.471Z,15.26
2019-05-19T02:00:10.345Z,15.14
2019-05-19T02:02:45.550Z,14.98
2019-05-19T02:05:22.035Z,14.98
2019-05-19T02:07:57.160Z,15.05
2019-05-19T02:10:33.670Z,15.01
2019-05-19T02:13:09.830Z,14.99
2019-05-19T02:15:45.025Z,14.99
2019-05-19T02:18:20.016Z,15.02
2019-05-19T02:20:55.180Z,14.84
2019-05-19T02:23:30.380Z,14.91
2019-05-19T02:26:06.030Z,14.84
2019-05-19T02:28:41.043Z,14.90
2019-05-19T02:31:16.148Z,15.05
2019-05-19T02:34:01.016Z,15.05
2019-05-19T02:36:36.139Z,14.96
2019-05-19T02:39:11.378Z,14.90
2019-05-19T02:41:49.775Z,14.88
2019-05-19T02:44:26.188Z,14.77
2019-05-19T02:47:03.581Z,14.69
2019-05-19T02:49:41.307Z,14.79
2019-05-19T02:52:19.400Z,14.71
2019-05-19T02:54:55.312Z,14.68
2019-05-19T02:57:32.440Z,14.58
2019-05-19T03:00:09.469Z,14.65
2019-05-19T03:02:45.234Z,14.65
2019-05-19T03:05:20.317Z,14.62
2019-05-19T03:07:57.006Z,14.59
2019-05-19T03:10:32.929Z,14.64
2019-05-19T03:13:08.690Z,14.61
2019-05-19T03:15:43.699Z,14.64
2019-05-19T03:18:18.820Z,14.71
2019-05-19T03:21:09.982Z,14.74
2019-05-19T03:23:30.696Z,14.79
2019-05-19T03:26:05.795Z,14.74
2019-05-19T03:28:40.860Z,14.68
2019-05-19T03:31:34.545Z,14.67
2019-05-19T03:34:09.561Z,14.66
2019-05-19T03:36:44.584Z,14.60
2019-05-19T03:39:19.668Z,14.60
2019-05-19T03:41:54.714Z,14.58
2019-05-19T03:44:29.710Z,14.52
2019-05-19T03:47:04.820Z,14.54
2019-05-19T03:49:39.950Z,14.48
2019-05-19T03:52:15.060Z,14.58
2019-05-19T03:54:50.172Z,14.56
2019-05-19T03:57:25.271Z,14.56
2019-05-19T04:00:00.246Z,14.68
2019-05-19T04:02:35.455Z,14.71
2019-05-19T04:05:11.271Z,14.65
2019-05-19T04:07:47.429Z,14.68
2019-05-19T04:10:24.414Z,14.65
2019-05-19T04:12:59.510Z,14.57
2019-05-19T04:15:34.485Z,14.69
2019-05-19T04:18:09.488Z,14.74
2019-05-19T04:23:14.462Z,14.93
2019-05-19T04:25:49.628Z,14.87
2019-05-19T04:28:25.007Z,14.83
2019-05-19T04:31:00.150Z,14.98
2019-05-19T04:33:38.353Z,15.18
2019-05-19T04:36:13.452Z,15.25
2019-05-19T04:38:48.435Z,15.37
2019-05-19T04:41:23.645Z,15.49
2019-05-19T04:43:58.782Z,15.56
2019-05-19T04:46:33.838Z,15.75
2019-05-19T04:49:09.925Z,15.81
2019-05-19T04:51:45.032Z,15.87
2019-05-19T04:54:20.123Z,16.02
2019-05-19T04:56:56.709Z,16.11
2019-05-19T04:59:32.155Z,16.22
2019-05-19T05:02:07.276Z,16.32
2019-05-19T05:04:42.237Z,16.40
2019-05-19T05:07:17.402Z,16.43
2019-05-19T05:09:52.663Z,16.48
2019-05-19T05:12:27.761Z,16.52
2019-05-19T05:15:03.102Z,16.63
2019-05-19T05:17:38.263Z,16.79
2019-05-19T05:20:13.470Z,16.80
2019-05-19T05:22:48.575Z,16.87
2019-05-19T05:25:23.694Z,16.89
2019-05-19T05:27:58.806Z,16.90
2019-05-19T05:30:33.998Z,17.04
2019-05-19T05:33:09.023Z,16.98
2019-05-19T05:35:44.103Z,16.90
2019-05-19T05:38:19.134Z,16.85
2019-05-19T05:40:54.255Z,16.91
2019-05-19T05:43:29.375Z,16.92
2019-05-19T05:46:04.547Z,16.84
2019-05-19T05:48:39.552Z,16.84
2019-05-19T05:51:14.637Z,16.98
2019-05-19T05:53:49.762Z,17.13
2019-05-19T05:56:24.777Z,17.32
2019-05-19T05:58:59.782Z,17.50
2019-05-19T06:01:34.861Z,17.57
2019-05-19T06:04:09.885Z,17.67
2019-05-19T06:06:45.866Z,17.67
2019-05-19T06:09:21.137Z,17.77
2019-05-19T06:11:56.364Z,17.81
2019-05-19T06:14:31.485Z,17.92
2019-05-19T06:17:06.594Z,17.97
2019-05-19T06:19:41.699Z,18.03
2019-05-19T06:22:16.775Z,18.05
2019-05-19T06:24:51.792Z,18.09
2019-05-19T06:27:26.773Z,18.17
2019-05-19T06:30:01.851Z,18.27
2019-05-19T06:32:44.176Z,18.41
2019-05-19T06:35:19.456Z,18.57
2019-05-19T06:37:54.501Z,18.54
2019-05-19T06:40:29.611Z,18.66
2019-05-19T06:43:04.710Z,18.64
2019-05-19T06:45:40.159Z,18.56
2019-05-19T06:48:15.372Z,18.64
2019-05-19T06:50:51.386Z,18.69
2019-05-19T06:53:26.629Z,18.65
2019-05-19T06:56:07.020Z,18.81
2019-05-19T06:58:42.299Z,18.74
2019-05-19T07:01:17.380Z,18.90
2019-05-19T07:03:52.665Z,19.03
2019-05-19T07:06:27.788Z,19.06
2019-05-19T07:09:05.928Z,19.10
2019-05-19T07:11:40.951Z,19.34
2019-05-19T07:14:16.072Z,19.60
2019-05-19T07:16:51.341Z,19.51
2019-05-19T07:19:26.458Z,19.54
2019-05-19T07:22:04.921Z,19.57
2019-05-19T07:24:40.094Z,19.68
2019-05-19T07:27:15.092Z,19.98
2019-05-19T07:29:50.300Z,19.93
2019-05-19T07:32:25.397Z,19.82
2019-05-19T07:35:01.117Z,19.82
2019-05-19T07:37:36.369Z,20.03
2019-05-19T07:40:13.678Z,19.96
2019-05-19T07:42:48.779Z,20.06
2019-05-19T07:45:24.452Z,20.09
2019-05-19T07:47:59.469Z,20.00
2019-05-19T07:50:38.034Z,19.98
2019-05-19T07:53:11.391Z,20.01
2019-05-19T07:55:47.579Z,20.16
2019-05-19T07:58:22.567Z,20.28
2019-05-19T08:00:57.700Z,20.66
2019-05-19T08:03:32.973Z,20.96
2019-05-19T08:06:08.563Z,21.33
2019-05-19T08:08:43.839Z,21.55
2019-05-19T08:11:19.037Z,21.45
2019-05-19T08:13:54.055Z,21.52
2019-05-19T08:16:29.070Z,21.36
2019-05-19T08:19:04.115Z,21.39
2019-05-19T08:21:39.203Z,21.54
2019-05-19T08:24:14.241Z,21.69
2019-05-19T08:26:49.276Z,21.73
2019-05-19T08:29:25.249Z,21.81
2019-05-19T08:32:00.328Z,21.98
2019-05-19T08:34:37.663Z,22.08
2019-05-19T08:37:12.819Z,22.22
2019-05-19T08:39:47.859Z,22.50
2019-05-19T08:42:22.864Z,22.63
2019-05-19T08:44:57.923Z,22.71
2019-05-19T08:47:33.159Z,22.67
2019-05-19T08:50:09.173Z,23.05
2019-05-19T08:52:44.319Z,22.93
2019-05-19T08:55:19.989Z,23.03
2019-05-19T08:57:55.154Z,23.14
2019-05-19T09:00:30.405Z,23.21
2019-05-19T09:03:05.389Z,23.42
2019-05-19T09:05:40.415Z,23.43
2019-05-19T09:08:15.491Z,23.35
2019-05-19T09:10:50.601Z,23.60
2019-05-19T09:13:25.687Z,23.57
2019-05-19T09:16:00.818Z,23.69
2019-05-19T09:18:36.064Z,23.80
2019-05-19T09:21:11.178Z,23.68
2019-05-19T09:23:46.169Z,23.53
2019-05-19T09:26:21.379Z,23.07
2019-05-19T09:28:56.411Z,23.14
2019-05-19T09:31:31.597Z,23.09
2019-05-19T09:34:06.625Z,23.01
2019-05-19T09:36:43.041Z,23.44
2019-05-19T09:39:18.049Z,23.65
2019-05-19T09:41:53.335Z,23.89
2019-05-19T09:44:28.419Z,24.11
2019-05-19T09:47:03.495Z,24.24
2019-05-19T09:49:38.603Z,24.27
2019-05-19T09:52:16.976Z,24.64
2019-05-19T09:54:50.572Z,24.50
2019-05-19T09:57:25.822Z,24.69
2019-05-19T10:00:00.818Z,24.83
2019-05-19T10:02:36.324Z,24.88
2019-05-19T10:05:11.991Z,24.86
2019-05-19T10:07:47.252Z,24.95
2019-05-19T10:11:16.738Z,24.91
2019-05-19T10:13:51.870Z,24.75
2019-05-19T10:16:26.942Z,24.92
2019-05-19T10:19:02.162Z,24.87
2019-05-19T10:21:38.421Z,24.95
2019-05-19T10:24:13.540Z,25.19
2019-05-19T10:26:48.658Z,25.24
2019-05-19T10:29:23.987Z,25.13
2019-05-19T10:31:59.485Z,25.46
2019-05-19T10:34:34.696Z,25.44
2019-05-19T10:37:10.051Z,25.53
2019-05-19T10:39:45.197Z,25.49
2019-05-19T10:42:20.284Z,25.60
2019-05-19T10:44:55.582Z,25.61
2019-05-19T10:47:30.775Z,25.44
2019-05-19T10:50:06.045Z,25.93
2019-05-19T10:52:41.178Z,26.15
2019-05-19T10:55:16.394Z,26.12
2019-05-19T10:57:51.484Z,26.26
2019-05-19T11:00:26.601Z,26.26
2019-05-19T11:03:01.707Z,26.51
2019-05-19T11:05:36.738Z,26.54
2019-05-19T11:08:11.845Z,26.31
2019-05-19T11:10:46.954Z,26.02
2019-05-19T11:13:22.097Z,25.83
2019-05-19T11:15:57.101Z,26.03
2019-05-19T11:18:33.255Z,26.49
2019-05-19T11:21:10.651Z,27.14
2019-05-19T11:23:45.908Z,27.28
2019-05-19T11:26:20.934Z,27.78
2019-05-19T11:28:56.044Z,28.39
2019-05-19T11:31:31.101Z,28.29
2019-05-19T11:34:07.833Z,28.25
2019-05-19T11:36:42.847Z,28.07
2019-05-19T11:39:17.854Z,28.08
2019-05-19T11:41:52.875Z,28.60
2019-05-19T11:44:31.475Z,29.11
2019-05-19T11:47:26.769Z,29.09
2019-05-19T11:50:14.823Z,29.63
2019-05-19T11:52:49.830Z,29.67
2019-05-19T11:55:26.705Z,30.01
2019-05-19T11:58:01.782Z,30.90
2019-05-19T12:00:36.897Z,30.75
2019-05-19T12:03:11.997Z,30.71
2019-05-19T12:05:47.009Z,31.30
2019-05-19T12:08:22.156Z,31.26
2019-05-19T12:10:57.360Z,31.58
2019-05-19T12:13:34.967Z,31.46
2019-05-19T12:16:09.509Z,31.37
2019-05-19T12:18:44.581Z,30.63
2019-05-19T12:21:20.247Z,30.17
2019-05-19T12:23:55.451Z,30.45
2019-05-19T12:26:30.747Z,30.62
2019-05-19T12:29:05.838Z,31.70
2019-05-19T12:31:41.090Z,32.26
2019-05-19T12:34:16.108Z,32.12
2019-05-19T12:36:51.381Z,32.63
2019-05-19T12:39:26.521Z,32.57
2019-05-19T12:42:01.601Z,32.48
2019-05-19T12:44:36.683Z,32.03
2019-05-19T12:47:13.013Z,32.61
2019-05-19T12:49:48.299Z,32.19
2019-05-19T12:52:24.345Z,31.30
2019-05-19T12:55:00.537Z,29.67
2019-05-19T12:57:36.346Z,28.58
2019-05-19T13:00:11.666Z,27.70
2019-05-19T13:02:46.833Z,27.37
2019-05-19T13:05:21.937Z,26.79
2019-05-19T13:07:56.913Z,26.34
2019-05-19T13:10:31.901Z,25.93
2019-05-19T13:13:06.946Z,25.36
2019-05-19T13:15:42.070Z,24.69
2019-05-19T13:18:17.248Z,23.60
2019-05-19T13:20:52.383Z,23.10
2019-05-19T13:23:27.534Z,22.58
2019-05-19T13:26:02.660Z,22.20
2019-05-19T13:28:37.775Z,22.04
2019-05-19T13:31:13.604Z,21.93
2019-05-19T13:33:48.678Z,22.02
2019-05-19T13:36:23.782Z,22.02
2019-05-19T13:38:58.796Z,22.01
2019-05-19T13:41:34.191Z,22.20
2019-05-19T13:44:09.208Z,22.26
2019-05-19T13:46:44.504Z,22.46
2019-05-19T13:49:19.460Z,22.78
2019-05-19T13:51:54.464Z,22.98
2019-05-19T13:54:29.512Z,23.05
2019-05-19T13:57:12.377Z,23.18
2019-05-19T13:59:41.405Z,23.30
2019-05-19T14:02:16.494Z,23.47
2019-05-19T14:04:51.492Z,23.46
2019-05-19T14:07:26.500Z,23.42
2019-05-19T14:10:01.482Z,23.46
2019-05-19T14:12:37.240Z,23.68
2019-05-19T14:15:12.367Z,23.92
2019-05-19T14:17:48.403Z,24.04
2019-05-19T14:20:23.598Z,24.60
2019-05-19T14:22:58.772Z,25.08
2019-05-19T14:25:33.875Z,25.05
2019-05-19T14:28:09.024Z,24.85
2019-05-19T14:30:44.056Z,24.37
2019-05-19T14:33:19.161Z,23.80
2019-05-19T14:35:54.293Z,23.17
2019-05-19T14:38:29.444Z,22.73
2019-05-19T14:41:04.440Z,22.16
2019-05-19T14:43:39.530Z,21.67
2019-05-19T14:46:14.620Z,21.29
2019-05-19T14:48:49.692Z,20.98
2019-05-19T14:51:25.023Z,20.54
2019-05-19T14:54:00.194Z,20.21
2019-05-19T14:56:36.289Z,19.73
2019-05-19T14:59:11.418Z,19.48
2019-05-19T15:01:46.514Z,19.21
2019-05-19T15:04:21.567Z,19.00
2019-05-19T15:06:56.604Z,18.67
2019-05-19T15:09:31.766Z,18.45
2019-05-19T15:12:07.062Z,18.43
2019-05-19T15:14:42.291Z,18.58
2019-05-19T15:17:17.309Z,18.74
2019-05-19T15:19:52.523Z,18.93
2019-05-19T15:22:27.723Z,18.99
2019-05-19T15:25:02.890Z,19.03
2019-05-19T15:27:38.139Z,19.16
2019-05-19T15:30:14.454Z,19.24
2019-05-19T15:32:49.784Z,19.20
2019-05-19T15:35:24.903Z,19.32
2019-05-19T15:38:00.092Z,19.45
2019-05-19T15:40:36.657Z,19.56
2019-05-19T15:43:12.382Z,19.51
2019-05-19T15:45:47.457Z,19.59
2019-05-19T15:48:22.614Z,19.39
2019-05-19T15:50:57.770Z,19.25
2019-05-19T15:53:32.974Z,19.16
2019-05-19T15:56:08.048Z,19.22
2019-05-19T15:58:43.120Z,19.50
2019-05-19T16:01:18.306Z,19.40
2019-05-19T16:03:53.467Z,19.58
2019-05-19T16:06:28.533Z,19.67
2019-05-19T16:09:05.014Z,19.69
2019-05-19T16:11:43.398Z,19.85
2019-05-19T16:14:18.654Z,19.99
2019-05-19T16:16:54.100Z,20.05
2019-05-19T16:19:29.319Z,19.85
2019-05-19T16:22:04.662Z,19.49
2019-05-19T16:24:39.792Z,19.13
2019-05-19T16:27:16.666Z,19.01
2019-05-19T16:29:52.072Z,19.14
2019-05-19T16:32:27.436Z,19.02
2019-05-19T16:35:02.553Z,19.15
2019-05-19T16:37:37.833Z,19.41
2019-05-19T16:40:13.844Z,19.24
2019-05-19T16:42:49.671Z,19.28
2019-05-19T16:45:24.932Z,19.26
2019-05-19T16:48:00.118Z,19.16
2019-05-19T16:50:35.414Z,19.06
2019-05-19T16:53:10.659Z,19.01
2019-05-19T16:55:46.210Z,18.93
2019-05-19T16:58:21.866Z,18.79
2019-05-19T17:00:58.436Z,18.70
2019-05-19T17:03:33.667Z,18.65
2019-05-19T17:06:08.989Z,18.53
2019-05-19T17:08:44.130Z,18.23
2019-05-19T17:11:19.429Z,17.92
2019-05-19T17:13:54.574Z,17.62
2019-05-19T17:16:30.004Z,17.58
2019-05-19T17:19:06.075Z,17.76
2019-05-19T17:21:43.636Z,17.68
2019-05-19T17:24:18.469Z,17.52
2019-05-19T17:26:53.591Z,17.40
2019-05-19T17:29:29.151Z,17.29
2019-05-19T17:32:06.259Z,17.42
2019-05-19T17:34:41.071Z,17.66
2019-05-19T17:37:16.055Z,17.95
2019-05-19T17:39:51.237Z,18.12
2019-05-19T17:42:26.450Z,18.28
2019-05-19T17:45:01.458Z,18.37
2019-05-19T17:47:37.644Z,18.25
2019-05-19T17:50:14.685Z,17.82
2019-05-19T17:52:49.790Z,17.21
2019-05-19T17:55:24.908Z,17.19
2019-05-19T17:58:01.734Z,17.08
2019-05-19T18:00:39.920Z,16.93
2019-05-19T18:03:14.907Z,16.35
2019-05-19T18:05:49.919Z,15.87
2019-05-19T18:08:24.898Z,15.76
2019-05-19T18:11:00.018Z,16.03
2019-05-19T18:13:35.185Z,16.22
2019-05-19T18:16:10.417Z,16.23
2019-05-19T18:18:45.544Z,16.43
2019-05-19T18:21:20.647Z,16.31
2019-05-19T18:23:55.716Z,16.17
2019-05-19T18:26:30.850Z,16.12
2019-05-19T18:29:05.952Z,16.09
2019-05-19T18:31:40.998Z,16.26
2019-05-19T18:34:16.007Z,16.20
2019-05-19T18:36:51.097Z,16.32
2019-05-19T18:39:26.279Z,16.40
2019-05-19T18:42:01.430Z,16.34
2019-05-19T18:44:36.464Z,16.42
2019-05-19T18:47:12.344Z,16.56
2019-05-19T18:49:48.604Z,16.51
2019-05-19T18:52:23.951Z,16.55
2019-05-19T18:54:59.034Z,16.55
2019-05-19T18:57:34.279Z,16.42
2019-05-19T19:00:09.757Z,16.32
2019-05-19T19:02:47.874Z,16.35
2019-05-19T19:05:23.055Z,16.41
2019-05-19T19:07:58.258Z,16.49
2019-05-19T19:10:33.978Z,16.44
2019-05-19T19:13:08.983Z,16.57
2019-05-19T19:15:44.008Z,16.53
2019-05-19T19:18:19.005Z,16.43
2019-05-19T19:20:54.786Z,16.45
2019-05-19T19:23:29.891Z,16.48
2019-05-19T19:26:05.012Z,16.54
2019-05-19T19:28:42.543Z,16.58
2019-05-19T19:31:17.647Z,16.61
2019-05-19T19:33:53.807Z,16.66
2019-05-19T19:36:29.045Z,16.61
2019-05-19T19:39:05.435Z,16.68
2019-05-19T19:41:41.083Z,16.57
2019-05-19T19:44:16.229Z,16.60
2019-05-19T19:46:53.686Z,16.57
2019-05-19T19:49:29.122Z,16.60
2019-05-19T19:52:04.162Z,16.50
2019-05-19T19:54:39.302Z,16.46
2019-05-19T19:57:14.457Z,16.43
2019-05-19T19:59:49.650Z,16.40
2019-05-19T20:02:24.681Z,16.39
2019-05-19T20:05:00.629Z,16.41
2019-05-19T20:07:35.657Z,16.31
2019-05-19T20:10:10.757Z,16.28
2019-05-19T20:12:45.773Z,16.27
2019-05-19T20:15:22.497Z,16.29
2019-05-19T20:17:57.570Z,16.23
2019-05-19T20:20:32.558Z,16.29
2019-05-19T20:23:07.776Z,16.25
2019-05-19T20:25:42.880Z,16.21
2019-05-19T20:28:17.925Z,16.22
2019-05-19T20:30:53.061Z,16.35
2019-05-19T20:33:28.113Z,16.29
2019-05-19T20:36:03.472Z,16.33
2019-05-19T20:38:38.953Z,16.26
2019-05-19T20:41:13.954Z,16.21
2019-05-19T20:43:49.069Z,16.28
2019-05-19T20:46:24.071Z,16.20
2019-05-19T20:48:59.176Z,16.26
2019-05-19T20:51:34.360Z,16.19
2019-05-19T20:54:09.461Z,16.16
2019-05-19T20:56:44.520Z,16.15
2019-05-19T20:59:19.577Z,16.14
2019-05-19T21:01:54.594Z,16.18
2019-05-19T21:04:29.574Z,16.15
2019-05-19T21:07:07.671Z,16.12
2019-05-19T21:09:41.408Z,16.15
2019-05-19T21:12:17.507Z,16.20
2019-05-19T21:14:53.597Z,16.04
2019-05-19T21:17:28.639Z,16.00
2019-05-19T21:20:03.858Z,16.03
2019-05-19T21:22:39.048Z,16.04
2019-05-19T21:25:14.689Z,16.02
2019-05-19T21:27:49.820Z,16.04
2019-05-19T21:30:24.836Z,16.04
2019-05-19T21:32:59.870Z,15.98
2019-05-19T21:35:35.864Z,16.01
2019-05-19T21:38:11.007Z,15.88
2019-05-19T21:40:46.986Z,15.82
2019-05-19T21:43:22.284Z,15.82
2019-05-19T21:45:57.344Z,15.81
2019-05-19T21:48:35.797Z,15.79
2019-05-19T21:51:10.791Z,15.84
2019-05-19T21:53:45.884Z,15.75
2019-05-19T21:56:21.062Z,15.84
2019-05-19T21:58:56.183Z,15.80
2019-05-19T22:01:31.257Z,15.80
2019-05-19T22:04:06.275Z,15.77
2019-05-19T22:06:43.324Z,15.73
2019-05-19T22:09:18.482Z,15.66
2019-05-19T22:11:53.471Z,15.68
2019-05-19T22:14:28.495Z,15.67
2019-05-19T22:17:03.487Z,15.67
2019-05-19T22:19:38.620Z,15.74
2019-05-19T22:22:13.720Z,15.72
2019-05-19T22:24:48.753Z,15.75
2019-05-19T22:27:23.754Z,15.74
2019-05-19T22:29:58.941Z,15.66
2019-05-19T22:32:33.916Z,15.57
2019-05-19T22:35:13.147Z,15.56
2019-05-19T22:37:49.233Z,15.50
2019-05-19T22:40:25.600Z,15.47
2019-05-19T22:43:00.590Z,15.50
2019-05-19T22:45:35.815Z,15.53
2019-05-19T22:48:10.914Z,15.50
2019-05-19T22:50:46.039Z,15.42
2019-05-19T22:53:21.022Z,15.36
2019-05-19T22:55:56.163Z,15.22
2019-05-19T22:58:31.254Z,15.21
2019-05-19T23:01:06.260Z,15.17
2019-05-19T23:03:41.277Z,15.23
2019-05-19T23:06:16.375Z,15.27
2019-05-19T23:08:51.505Z,15.21
2019-05-19T23:11:26.487Z,15.17
2019-05-19T23:14:01.657Z,15.17
2019-05-19T23:16:36.677Z,15.23
2019-05-19T23:19:11.741Z,15.26
2019-05-19T23:21:46.718Z,15.21
2019-05-19T23:24:21.817Z,15.24
2019-05-19T23:26:56.804Z,15.22
2019-05-19T23:29:32.164Z,15.19
2019-05-19T23:32:07.658Z,15.26
2019-05-19T23:34:42.840Z,15.22
2019-05-19T23:37:17.825Z,15.27
2019-05-19T23:39:54.260Z,15.28
2019-05-19T23:42:29.315Z,15.17
2019-05-19T23:45:04.430Z,15.15
2019-05-19T23:47:39.410Z,15.17
2019-05-19T23:50:14.830Z,15.25
2019-05-19T23:52:49.910Z,15.26
2019-05-19T23:55:25.003Z,15.22
2019-05-19T23:57:59.973Z,15.23
